createdAt,value
2022-11-17T00:00:24.902Z,7.40
2022-11-17T00:03:16.018Z,7.30
2022-11-17T00:06:05.778Z,7.20
2022-11-17T00:08:52.915Z,7.10
2022-11-17T00:11:57.067Z,7.10
2022-11-17T00:14:42.990Z,7.20
2022-11-17T00:17:28.722Z,7.10
2022-11-17T00:20:33.375Z,7.20
2022-11-17T00:23:18.752Z,7.20
2022-11-17T00:26:04.325Z,7.20
2022-11-17T00:29:07.880Z,7.20
2022-11-17T00:32:11.525Z,7.20
2022-11-17T00:34:57.618Z,7.40
2022-11-17T00:38:03.490Z,7.50
2022-11-17T00:40:49.059Z,7.40
2022-11-17T00:43:34.897Z,7.40
2022-11-17T00:46:20.905Z,7.30
2022-11-17T00:49:07.647Z,7.20
2022-11-17T00:51:54.744Z,7.30
2022-11-17T00:54:40.394Z,7.40
2022-11-17T00:57:26.079Z,7.20
2022-11-17T01:00:12.492Z,7.30
2022-11-17T01:02:58.116Z,7.20
2022-11-17T01:05:43.483Z,7.20
2022-11-17T01:08:29.202Z,7.30
2022-11-17T01:11:17.988Z,7.20
2022-11-17T01:14:03.998Z,7.30
2022-11-17T01:16:50.188Z,7.40
2022-11-17T01:19:35.860Z,7.40
2022-11-17T01:22:21.158Z,7.40
2022-11-17T01:25:07.152Z,7.40
2022-11-17T01:27:52.872Z,7.40
2022-11-17T01:30:38.474Z,7.40
2022-11-17T01:33:24.078Z,7.40
2022-11-17T01:36:24.570Z,7.40
2022-11-17T01:39:10.271Z,7.40
2022-11-17T01:41:56.253Z,7.50
2022-11-17T01:45:01.336Z,7.60
2022-11-17T01:47:54.881Z,7.50
2022-11-17T01:50:49.579Z,7.60
2022-11-17T01:53:35.895Z,7.80
2022-11-17T01:56:27.669Z,8.00
2022-11-17T01:59:21.264Z,8.00
2022-11-17T02:02:07.766Z,8.20
2022-11-17T02:05:06.285Z,8.20
2022-11-17T02:08:13.604Z,8.20
2022-11-17T02:11:02.976Z,8.30
2022-11-17T02:13:50.158Z,8.40
2022-11-17T02:16:35.639Z,8.50
2022-11-17T02:19:22.952Z,8.60
2022-11-17T02:22:26.822Z,8.70
2022-11-17T02:25:48.853Z,8.80
2022-11-17T02:28:59.345Z,9.00
2022-11-17T02:32:06.993Z,9.20
2022-11-17T02:35:33.164Z,9.30
2022-11-17T02:38:28.733Z,9.40
2022-11-17T02:41:42.800Z,9.40
2022-11-17T02:44:40.788Z,9.40
2022-11-17T02:47:32.807Z,9.60
2022-11-17T02:50:26.738Z,9.70
2022-11-17T02:53:14.913Z,9.70
2022-11-17T02:56:02.623Z,9.70
2022-11-17T02:58:55.685Z,9.70
2022-11-17T03:02:04.024Z,9.70
2022-11-17T03:05:04.943Z,9.70
2022-11-17T03:08:10.433Z,9.70
2022-11-17T03:11:03.044Z,9.70
2022-11-17T03:14:09.057Z,9.80
2022-11-17T03:17:08.015Z,9.90
2022-11-17T03:20:19.780Z,9.80
2022-11-17T03:23:07.901Z,9.80
2022-11-17T03:25:58.017Z,9.80
2022-11-17T03:28:45.496Z,9.80
2022-11-17T03:31:32.844Z,9.80
2022-11-17T03:34:21.844Z,9.80
2022-11-17T03:37:10.805Z,9.70
2022-11-17T03:40:04.257Z,9.60
2022-11-17T03:42:55.211Z,9.60
2022-11-17T03:45:46.956Z,9.70
2022-11-17T03:48:39.402Z,9.70
2022-11-17T03:51:28.392Z,9.70
2022-11-17T03:54:14.809Z,9.60
2022-11-17T03:57:12.805Z,9.60
2022-11-17T04:00:09.092Z,9.70
2022-11-17T04:02:58.749Z,9.60
2022-11-17T04:05:44.402Z,9.70
2022-11-17T04:08:30.924Z,9.70
2022-11-17T04:11:34.719Z,9.70
2022-11-17T04:14:39.183Z,9.70
2022-11-17T04:17:24.427Z,9.70
2022-11-17T04:20:10.254Z,9.70
2022-11-17T04:23:07.373Z,9.70
2022-11-17T04:26:14.395Z,9.80
2022-11-17T04:28:59.976Z,9.80
2022-11-17T04:31:45.418Z,9.70
2022-11-17T04:34:30.782Z,9.70
2022-11-17T04:37:19.057Z,9.70
2022-11-17T04:40:04.791Z,9.60
2022-11-17T04:42:50.043Z,9.70
2022-11-17T04:45:35.458Z,9.70
2022-11-17T04:48:21.055Z,9.70
2022-11-17T04:51:06.745Z,9.80
2022-11-17T04:53:52.803Z,9.70
2022-11-17T04:56:38.831Z,9.60
2022-11-17T04:59:24.419Z,9.60
2022-11-17T05:02:10.106Z,9.60
2022-11-17T05:04:58.344Z,9.50
2022-11-17T05:07:43.939Z,9.50
2022-11-17T05:10:47.822Z,9.50
2022-11-17T05:13:33.585Z,9.50
2022-11-17T05:16:39.019Z,9.60
2022-11-17T05:19:29.496Z,9.70
2022-11-17T05:22:38.156Z,9.80
2022-11-17T05:25:23.503Z,10.00
2022-11-17T05:28:09.011Z,10.10
2022-11-17T05:30:54.227Z,10.10
2022-11-17T05:33:40.378Z,10.20
2022-11-17T05:36:27.529Z,10.20
2022-11-17T05:39:14.084Z,10.30
2022-11-17T05:41:59.225Z,10.30
2022-11-17T05:44:44.682Z,10.20
2022-11-17T05:47:30.424Z,10.30
2022-11-17T05:50:15.905Z,10.30
2022-11-17T05:53:01.828Z,10.20
2022-11-17T05:55:47.723Z,10.30
2022-11-17T05:58:34.514Z,10.30
2022-11-17T06:01:21.366Z,10.20
2022-11-17T06:04:08.748Z,10.20
2022-11-17T06:06:59.130Z,10.10
2022-11-17T06:09:45.808Z,10.10
2022-11-17T06:12:31.335Z,10.00
2022-11-17T06:15:17.246Z,10.00
2022-11-17T06:18:07.427Z,9.90
2022-11-17T06:20:53.931Z,9.80
2022-11-17T06:23:39.426Z,9.70
2022-11-17T06:26:25.080Z,9.70
2022-11-17T06:29:11.478Z,9.90
2022-11-17T06:31:58.286Z,10.00
2022-11-17T06:34:49.177Z,10.10
2022-11-17T06:37:37.692Z,10.20
2022-11-17T06:40:23.679Z,10.10
2022-11-17T06:43:12.225Z,10.10
2022-11-17T06:45:58.240Z,9.90
2022-11-17T06:48:43.770Z,9.90
2022-11-17T06:51:29.136Z,9.90
2022-11-17T06:54:15.103Z,9.90
2022-11-17T06:57:00.584Z,9.90
2022-11-17T06:59:46.233Z,10.00
2022-11-17T07:02:32.614Z,10.10
2022-11-17T07:05:18.291Z,10.10
2022-11-17T07:08:08.241Z,10.10
2022-11-17T07:10:57.509Z,10.10
2022-11-17T07:13:43.435Z,10.20
2022-11-17T07:16:30.791Z,10.30
2022-11-17T07:19:16.429Z,10.40
2022-11-17T07:22:03.548Z,10.60
2022-11-17T07:24:49.290Z,10.80
2022-11-17T07:27:35.682Z,10.90
2022-11-17T07:30:21.018Z,11.00
2022-11-17T07:33:06.835Z,11.10
2022-11-17T07:35:52.038Z,11.10
2022-11-17T07:38:39.553Z,11.10
2022-11-17T07:41:25.089Z,11.10
2022-11-17T07:44:11.803Z,11.00
2022-11-17T07:46:57.214Z,11.00
2022-11-17T07:49:42.990Z,11.00
2022-11-17T07:52:28.609Z,10.90
2022-11-17T07:55:14.038Z,10.80
2022-11-17T07:58:01.755Z,10.80
2022-11-17T08:00:47.368Z,10.80
2022-11-17T08:03:33.126Z,10.80
2022-11-17T08:06:19.321Z,10.80
2022-11-17T08:09:06.335Z,10.80
2022-11-17T08:11:52.119Z,10.80
2022-11-17T08:14:37.404Z,10.90
2022-11-17T08:17:23.419Z,10.90
2022-11-17T08:20:09.617Z,10.80
2022-11-17T08:22:55.910Z,10.90
2022-11-17T08:25:41.354Z,10.80
2022-11-17T08:28:27.102Z,10.80
2022-11-17T08:31:12.540Z,10.80
2022-11-17T08:33:58.047Z,10.70
2022-11-17T08:36:43.769Z,10.70
2022-11-17T08:39:29.229Z,10.70
2022-11-17T08:42:16.649Z,10.70
2022-11-17T08:45:01.822Z,10.70
2022-11-17T08:47:47.526Z,10.80
2022-11-17T08:50:33.037Z,10.90
2022-11-17T08:53:20.890Z,10.90
2022-11-17T08:56:08.252Z,11.00
2022-11-17T08:58:53.571Z,11.10
2022-11-17T09:01:39.678Z,11.10
2022-11-17T09:04:25.380Z,11.10
2022-11-17T09:07:11.009Z,11.10
2022-11-17T09:09:56.737Z,11.10
2022-11-17T09:12:42.382Z,11.10
2022-11-17T09:15:28.129Z,11.20
2022-11-17T09:18:13.630Z,11.20
2022-11-17T09:21:04.487Z,11.10
2022-11-17T09:23:49.693Z,11.20
2022-11-17T09:26:35.517Z,11.20
2022-11-17T09:29:21.964Z,11.30
2022-11-17T09:32:07.597Z,11.20
2022-11-17T09:34:53.438Z,11.20
2022-11-17T09:37:38.678Z,11.10
2022-11-17T09:40:24.482Z,11.10
2022-11-17T09:43:28.880Z,11.10
2022-11-17T09:46:52.271Z,11.00
2022-11-17T09:50:00.900Z,10.90
2022-11-17T09:52:55.406Z,10.90
2022-11-17T09:55:43.557Z,11.00
2022-11-17T09:58:49.186Z,11.10
2022-11-17T10:01:34.803Z,11.20
2022-11-17T10:04:20.528Z,11.20
2022-11-17T10:07:06.945Z,11.30
2022-11-17T10:09:53.416Z,11.30
2022-11-17T10:12:47.623Z,11.40
2022-11-17T10:15:46.227Z,11.50
2022-11-17T10:18:38.310Z,11.70
2022-11-17T10:21:24.248Z,11.80
2022-11-17T10:24:09.675Z,12.10
2022-11-17T10:26:55.222Z,12.30
2022-11-17T10:29:40.743Z,12.50
2022-11-17T10:32:28.357Z,12.60
2022-11-17T10:35:17.010Z,12.80
2022-11-17T10:38:08.456Z,13.00
2022-11-17T10:40:54.100Z,13.00
2022-11-17T10:43:42.597Z,13.00
2022-11-17T10:46:35.614Z,12.90
2022-11-17T10:49:38.572Z,13.00
2022-11-17T10:52:24.041Z,13.10
2022-11-17T10:55:25.377Z,13.40
2022-11-17T10:58:26.990Z,13.30
2022-11-17T11:01:12.393Z,13.00
2022-11-17T11:03:58.689Z,12.80
2022-11-17T11:06:44.450Z,12.70
2022-11-17T11:09:30.817Z,12.60
2022-11-17T11:12:23.455Z,12.50
2022-11-17T11:15:19.185Z,12.40
2022-11-17T11:18:23.266Z,12.50
2022-11-17T11:21:38.975Z,12.50
2022-11-17T11:24:53.346Z,12.40
2022-11-17T11:28:00.474Z,12.30
2022-11-17T11:31:19.835Z,12.20
2022-11-17T11:34:20.730Z,12.40
2022-11-17T11:37:12.275Z,12.60
2022-11-17T11:40:15.698Z,12.90
2022-11-17T11:43:34.798Z,13.20
2022-11-17T11:46:31.742Z,13.60
2022-11-17T11:49:22.724Z,13.90
2022-11-17T11:52:16.329Z,14.10
2022-11-17T11:55:26.638Z,14.20
2022-11-17T11:58:20.776Z,14.00
2022-11-17T12:01:08.108Z,13.90
2022-11-17T12:04:21.534Z,13.80
2022-11-17T12:07:48.545Z,13.70
2022-11-17T12:10:42.702Z,13.80
2022-11-17T12:13:28.901Z,13.80
2022-11-17T12:16:19.248Z,13.80
2022-11-17T12:19:43.494Z,14.10
2022-11-17T12:22:34.609Z,14.30
2022-11-17T12:25:32.029Z,14.30
2022-11-17T12:28:37.178Z,14.20
2022-11-17T12:31:25.394Z,14.30
2022-11-17T12:34:37.098Z,14.50
2022-11-17T12:37:26.584Z,14.60
2022-11-17T12:40:48.687Z,14.60
2022-11-17T12:43:34.289Z,14.70
2022-11-17T12:46:27.081Z,14.70
2022-11-17T12:49:27.980Z,14.60
2022-11-17T12:52:20.865Z,14.70
2022-11-17T12:55:29.215Z,14.70
2022-11-17T12:58:14.514Z,14.70
2022-11-17T13:01:30.979Z,14.80
2022-11-17T13:04:22.711Z,14.80
2022-11-17T13:07:23.520Z,14.90
2022-11-17T13:10:29.884Z,15.00
2022-11-17T13:13:21.106Z,15.20
2022-11-17T13:16:18.802Z,15.30
2022-11-17T13:19:04.738Z,15.20
2022-11-17T13:22:03.697Z,14.90
2022-11-17T13:24:50.442Z,14.70
2022-11-17T13:27:36.231Z,14.50
2022-11-17T13:30:25.950Z,14.40
2022-11-17T13:33:21.431Z,14.30
2022-11-17T13:36:14.638Z,14.30
2022-11-17T13:39:02.803Z,14.40
2022-11-17T13:41:49.165Z,14.40
2022-11-17T13:44:34.986Z,14.40
2022-11-17T13:47:26.379Z,14.30
2022-11-17T13:50:37.352Z,14.20
2022-11-17T13:53:25.827Z,14.10
2022-11-17T13:56:31.795Z,14.10
2022-11-17T13:59:26.152Z,13.90
2022-11-17T14:02:17.361Z,13.80
2022-11-17T14:05:15.068Z,13.70
2022-11-17T14:08:22.749Z,13.70
2022-11-17T14:11:15.135Z,13.80
2022-11-17T14:14:01.554Z,13.80
2022-11-17T14:16:47.071Z,13.80
2022-11-17T14:19:33.704Z,13.80
2022-11-17T14:22:31.396Z,13.70
2022-11-17T14:25:17.388Z,13.70
2022-11-17T14:28:03.086Z,13.70
2022-11-17T14:30:50.239Z,13.80
2022-11-17T14:33:35.392Z,13.80
2022-11-17T14:36:20.942Z,13.80
2022-11-17T14:39:17.908Z,13.80
2022-11-17T14:42:03.660Z,13.80
2022-11-17T14:44:49.076Z,13.70
2022-11-17T14:47:34.942Z,13.70
2022-11-17T14:50:20.678Z,13.60
2022-11-17T14:53:06.636Z,13.60
2022-11-17T14:55:52.414Z,13.60
2022-11-17T14:58:37.951Z,13.60
2022-11-17T15:01:29.340Z,13.50
2022-11-17T15:04:48.797Z,13.40
2022-11-17T15:07:23.818Z,13.40
2022-11-17T15:10:09.878Z,13.40
2022-11-17T15:12:55.795Z,13.30
2022-11-17T15:15:40.930Z,13.20
2022-11-17T15:18:26.389Z,13.20
2022-11-17T15:21:11.992Z,13.10
2022-11-17T15:23:57.328Z,13.10
2022-11-17T15:26:42.742Z,12.90
2022-11-17T15:29:28.223Z,12.90
2022-11-17T15:32:13.760Z,12.80
2022-11-17T15:34:59.354Z,12.80
2022-11-17T15:37:44.901Z,12.70
2022-11-17T15:40:30.645Z,12.60
2022-11-17T15:43:16.068Z,12.60
2022-11-17T15:46:10.241Z,12.60
2022-11-17T15:48:55.936Z,12.70
2022-11-17T15:51:41.202Z,12.60
2022-11-17T15:54:26.947Z,12.60
2022-11-17T15:57:12.436Z,12.30
2022-11-17T15:59:57.865Z,12.20
2022-11-17T16:02:43.656Z,12.10
2022-11-17T16:05:28.978Z,12.10
2022-11-17T16:08:14.511Z,12.00
2022-11-17T16:11:00.417Z,11.90
2022-11-17T16:13:46.196Z,11.80
2022-11-17T16:16:34.809Z,11.80
2022-11-17T16:19:20.483Z,11.80
2022-11-17T16:22:06.024Z,11.70
2022-11-17T16:24:51.483Z,11.60
2022-11-17T16:27:37.145Z,11.50
2022-11-17T16:30:22.478Z,11.50
2022-11-17T16:33:12.932Z,11.50
2022-11-17T16:36:05.003Z,11.40
2022-11-17T16:39:00.883Z,11.40
2022-11-17T16:41:47.436Z,11.30
2022-11-17T16:44:33.149Z,11.20
2022-11-17T16:47:18.539Z,11.20
2022-11-17T16:50:04.338Z,11.10
2022-11-17T16:52:50.181Z,11.00
2022-11-17T16:55:36.841Z,10.90
2022-11-17T16:58:22.284Z,10.90
2022-11-17T17:01:16.878Z,10.80
2022-11-17T17:04:07.081Z,10.80
2022-11-17T17:06:52.417Z,10.80
2022-11-17T17:09:37.908Z,10.80
2022-11-17T17:12:23.691Z,10.70
2022-11-17T17:15:10.065Z,10.60
2022-11-17T17:17:55.622Z,10.40
2022-11-17T17:20:49.227Z,10.40
2022-11-17T17:23:35.263Z,10.40
2022-11-17T17:26:22.730Z,10.40
2022-11-17T17:29:08.910Z,10.60
2022-11-17T17:31:55.313Z,10.60
2022-11-17T17:34:40.975Z,10.60
2022-11-17T17:37:26.292Z,10.60
2022-11-17T17:40:12.185Z,10.60
2022-11-17T17:42:57.631Z,10.60
2022-11-17T17:45:43.377Z,10.60
2022-11-17T17:48:31.149Z,10.70
2022-11-17T17:51:18.994Z,10.80
2022-11-17T17:54:04.580Z,10.80
2022-11-17T17:56:50.418Z,10.70
2022-11-17T17:59:35.612Z,10.80
2022-11-17T18:02:20.997Z,10.80
2022-11-17T18:05:06.733Z,10.80
2022-11-17T18:07:52.458Z,10.80
2022-11-17T18:10:37.997Z,10.90
2022-11-17T18:13:23.284Z,10.90
2022-11-17T18:16:18.161Z,11.00
2022-11-17T18:19:06.737Z,11.10
2022-11-17T18:21:52.191Z,11.10
2022-11-17T18:24:39.517Z,11.20
2022-11-17T18:27:25.208Z,11.10
2022-11-17T18:30:11.343Z,11.20
2022-11-17T18:33:01.762Z,11.10
2022-11-17T18:35:51.105Z,11.20
2022-11-17T18:38:37.474Z,11.20
2022-11-17T18:41:23.703Z,11.30
2022-11-17T18:44:12.753Z,11.40
2022-11-17T18:47:02.563Z,11.50
2022-11-17T18:49:48.697Z,11.50
2022-11-17T18:52:34.522Z,11.60
2022-11-17T18:55:21.384Z,11.50
2022-11-17T18:58:07.248Z,11.50
2022-11-17T19:00:52.707Z,11.40
2022-11-17T19:03:39.613Z,11.40
2022-11-17T19:06:25.445Z,11.20
2022-11-17T19:09:11.498Z,11.20
2022-11-17T19:11:57.317Z,11.10
2022-11-17T19:14:42.983Z,11.00
2022-11-17T19:17:28.525Z,11.00
2022-11-17T19:20:14.142Z,11.00
2022-11-17T19:22:59.411Z,10.90
2022-11-17T19:25:45.539Z,10.90
2022-11-17T19:28:31.084Z,10.80
2022-11-17T19:31:20.279Z,10.70
2022-11-17T19:34:05.724Z,10.70
2022-11-17T19:36:51.152Z,10.60
2022-11-17T19:39:36.738Z,10.50
2022-11-17T19:42:22.080Z,10.50
2022-11-17T19:45:08.669Z,10.40
2022-11-17T19:47:54.320Z,10.30
2022-11-17T19:50:39.728Z,10.40
2022-11-17T19:53:25.420Z,10.40
2022-11-17T19:56:10.689Z,10.30
2022-11-17T19:58:56.354Z,10.30
2022-11-17T20:01:41.683Z,10.30
2022-11-17T20:04:27.155Z,10.20
2022-11-17T20:07:13.669Z,10.20
2022-11-17T20:09:59.558Z,10.10
2022-11-17T20:12:45.038Z,10.00
2022-11-17T20:15:34.796Z,10.10
2022-11-17T20:18:20.373Z,10.00
2022-11-17T20:21:07.095Z,9.90
2022-11-17T20:23:53.047Z,9.90
2022-11-17T20:26:40.967Z,9.90
2022-11-17T20:29:26.512Z,9.90
2022-11-17T20:32:12.183Z,9.80
2022-11-17T20:34:57.822Z,9.90
2022-11-17T20:37:43.295Z,9.80
2022-11-17T20:40:30.034Z,9.60
2022-11-17T20:43:15.795Z,9.60
2022-11-17T20:46:02.032Z,9.60
2022-11-17T20:48:48.336Z,9.50
2022-11-17T20:51:33.747Z,9.70
2022-11-17T20:54:19.861Z,9.60
2022-11-17T20:57:05.159Z,9.60
2022-11-17T20:59:50.760Z,9.50
2022-11-17T21:02:36.632Z,9.60
2022-11-17T21:05:21.765Z,9.60
2022-11-17T21:08:07.811Z,9.70
2022-11-17T21:11:01.931Z,9.70
2022-11-17T21:13:47.645Z,9.50
2022-11-17T21:16:33.839Z,9.50
2022-11-17T21:19:19.926Z,9.40
2022-11-17T21:22:05.537Z,9.30
2022-11-17T21:24:50.982Z,9.30
2022-11-17T21:27:36.794Z,9.30
2022-11-17T21:30:22.307Z,9.20
2022-11-17T21:33:07.476Z,9.20
2022-11-17T21:35:52.868Z,9.20
2022-11-17T21:38:39.062Z,9.30
2022-11-17T21:41:27.463Z,9.30
2022-11-17T21:44:14.064Z,9.30
2022-11-17T21:46:59.579Z,9.30
2022-11-17T21:49:45.275Z,9.30
2022-11-17T21:52:30.597Z,9.30
2022-11-17T21:55:16.239Z,9.30
2022-11-17T21:58:01.677Z,9.20
2022-11-17T22:00:46.949Z,9.20
2022-11-17T22:03:32.810Z,9.20
2022-11-17T22:06:21.759Z,9.20
2022-11-17T22:09:07.185Z,9.20
2022-11-17T22:11:53.221Z,9.20
2022-11-17T22:14:38.862Z,9.20
2022-11-17T22:17:24.813Z,9.10
2022-11-17T22:20:10.775Z,9.00
2022-11-17T22:22:59.366Z,8.90
2022-11-17T22:25:53.822Z,8.80
2022-11-17T22:28:39.038Z,8.80
2022-11-17T22:31:25.629Z,8.80
2022-11-17T22:34:12.540Z,8.80
2022-11-17T22:36:58.165Z,8.70
2022-11-17T22:39:43.688Z,8.80
2022-11-17T22:42:29.042Z,8.70
2022-11-17T22:45:14.792Z,8.80
2022-11-17T22:48:01.438Z,8.70
2022-11-17T22:50:46.740Z,8.70
2022-11-17T22:53:33.940Z,8.80
2022-11-17T22:56:19.368Z,8.80
2022-11-17T22:59:04.873Z,8.80
2022-11-17T23:01:50.475Z,8.70
2022-11-17T23:04:36.602Z,8.70
2022-11-17T23:07:22.334Z,8.70
2022-11-17T23:10:08.057Z,8.70
2022-11-17T23:12:53.887Z,8.60
2022-11-17T23:15:39.820Z,8.60
2022-11-17T23:18:25.894Z,8.70
2022-11-17T23:21:11.772Z,8.60
2022-11-17T23:23:57.381Z,8.60
2022-11-17T23:26:43.410Z,8.50
2022-11-17T23:29:29.213Z,8.50
2022-11-17T23:32:14.567Z,8.50
2022-11-17T23:34:59.972Z,8.50
2022-11-17T23:37:45.413Z,8.50
2022-11-17T23:40:30.985Z,8.60
2022-11-17T23:43:16.724Z,8.70
2022-11-17T23:46:16.350Z,8.70
2022-11-17T23:49:02.353Z,8.70
2022-11-17T23:51:47.742Z,8.70
2022-11-17T23:54:33.153Z,8.70
2022-11-17T23:57:18.744Z,8.80
